sensor_id;sensor_type;location;lat;lon;timestamp;P1;durP1;ratioP1;P2;durP2;ratioP2
77876;SDS011;67251;50.844;7.978;2023-08-31T00:01:08;10.50;;;3.85;;
77876;SDS011;67251;50.844;7.978;2023-08-31T00:03:34;10.73;;;4.55;;
77876;SDS011;67251;50.844;7.978;2023-08-31T00:06:03;10.38;;;4.70;;
77876;SDS011;67251;50.844;7.978;2023-08-31T00:08:29;10.00;;;3.58;;
77876;SDS011;67251;50.844;7.978;2023-08-31T00:10:55;10.30;;;4.22;;
77876;SDS011;67251;50.844;7.978;2023-08-31T00:13:22;8.52;;;3.92;;
77876;SDS011;67251;50.844;7.978;2023-08-31T00:15:47;10.80;;;4.40;;
77876;SDS011;67251;50.844;7.978;2023-08-31T00:18:13;10.55;;;3.70;;
77876;SDS011;67251;50.844;7.978;2023-08-31T00:20:41;8.02;;;3.30;;
77876;SDS011;67251;50.844;7.978;2023-08-31T00:23:06;9.68;;;3.75;;
77876;SDS011;67251;50.844;7.978;2023-08-31T00:25:32;8.35;;;3.78;;
77876;SDS011;67251;50.844;7.978;2023-08-31T00:27:57;8.27;;;3.80;;
77876;SDS011;67251;50.844;7.978;2023-08-31T00:30:29;9.90;;;3.55;;
77876;SDS011;67251;50.844;7.978;2023-08-31T00:32:55;8.52;;;3.67;;
77876;SDS011;67251;50.844;7.978;2023-08-31T00:35:24;10.25;;;3.58;;
77876;SDS011;67251;50.844;7.978;2023-08-31T00:37:51;11.38;;;3.60;;
77876;SDS011;67251;50.844;7.978;2023-08-31T00:40:16;8.43;;;3.60;;
77876;SDS011;67251;50.844;7.978;2023-08-31T00:42:42;10.07;;;3.72;;
77876;SDS011;67251;50.844;7.978;2023-08-31T00:45:07;9.02;;;3.63;;
77876;SDS011;67251;50.844;7.978;2023-08-31T00:47:33;7.97;;;3.38;;
77876;SDS011;67251;50.844;7.978;2023-08-31T00:49:58;8.77;;;3.65;;
77876;SDS011;67251;50.844;7.978;2023-08-31T00:52:25;10.38;;;4.10;;
77876;SDS011;67251;50.844;7.978;2023-08-31T00:54:51;9.15;;;3.83;;
77876;SDS011;67251;50.844;7.978;2023-08-31T00:57:17;8.40;;;3.53;;
77876;SDS011;67251;50.844;7.978;2023-08-31T00:59:43;8.73;;;4.15;;
77876;SDS011;67251;50.844;7.978;2023-08-31T01:05:04;11.23;;;3.65;;
77876;SDS011;67251;50.844;7.978;2023-08-31T01:12:55;9.27;;;3.72;;
77876;SDS011;67251;50.844;7.978;2023-08-31T01:15:38;13.20;;;4.03;;
77876;SDS011;67251;50.844;7.978;2023-08-31T01:18:06;12.55;;;4.18;;
77876;SDS011;67251;50.844;7.978;2023-08-31T01:21:23;7.80;;;3.45;;
77876;SDS011;67251;50.844;7.978;2023-08-31T01:26:23;11.43;;;4.35;;
77876;SDS011;67251;50.844;7.978;2023-08-31T01:28:49;10.52;;;3.67;;
77876;SDS011;67251;50.844;7.978;2023-08-31T01:31:16;11.48;;;3.55;;
77876;SDS011;67251;50.844;7.978;2023-08-31T01:33:42;7.35;;;2.95;;
77876;SDS011;67251;50.844;7.978;2023-08-31T01:36:11;10.57;;;3.80;;
77876;SDS011;67251;50.844;7.978;2023-08-31T01:42:04;9.40;;;3.58;;
77876;SDS011;67251;50.844;7.978;2023-08-31T01:44:30;7.50;;;3.47;;
77876;SDS011;67251;50.844;7.978;2023-08-31T01:50:21;8.98;;;3.80;;
77876;SDS011;67251;50.844;7.978;2023-08-31T01:52:47;8.60;;;3.88;;
77876;SDS011;67251;50.844;7.978;2023-08-31T01:55:12;10.18;;;4.00;;
77876;SDS011;67251;50.844;7.978;2023-08-31T01:57:40;9.35;;;4.20;;
77876;SDS011;67251;50.844;7.978;2023-08-31T02:00:06;10.88;;;4.07;;
77876;SDS011;67251;50.844;7.978;2023-08-31T02:02:32;9.88;;;3.95;;
77876;SDS011;67251;50.844;7.978;2023-08-31T02:04:58;11.15;;;4.10;;
77876;SDS011;67251;50.844;7.978;2023-08-31T02:07:26;9.57;;;3.67;;
77876;SDS011;67251;50.844;7.978;2023-08-31T02:09:52;10.20;;;3.97;;
77876;SDS011;67251;50.844;7.978;2023-08-31T02:12:17;8.52;;;3.78;;
77876;SDS011;67251;50.844;7.978;2023-08-31T02:14:42;9.68;;;4.10;;
77876;SDS011;67251;50.844;7.978;2023-08-31T02:17:07;9.23;;;3.72;;
77876;SDS011;67251;50.844;7.978;2023-08-31T02:19:33;10.27;;;3.67;;
77876;SDS011;67251;50.844;7.978;2023-08-31T02:21:58;9.70;;;3.50;;
77876;SDS011;67251;50.844;7.978;2023-08-31T02:24:23;9.02;;;3.60;;
77876;SDS011;67251;50.844;7.978;2023-08-31T02:26:49;9.45;;;3.58;;
77876;SDS011;67251;50.844;7.978;2023-08-31T02:29:15;8.95;;;3.40;;
77876;SDS011;67251;50.844;7.978;2023-08-31T02:31:40;8.75;;;3.50;;
77876;SDS011;67251;50.844;7.978;2023-08-31T02:34:06;9.35;;;3.13;;
77876;SDS011;67251;50.844;7.978;2023-08-31T02:36:32;9.30;;;3.50;;
77876;SDS011;67251;50.844;7.978;2023-08-31T02:38:57;7.53;;;3.47;;
77876;SDS011;67251;50.844;7.978;2023-08-31T02:41:23;10.55;;;3.35;;
77876;SDS011;67251;50.844;7.978;2023-08-31T02:43:51;10.90;;;3.08;;
77876;SDS011;67251;50.844;7.978;2023-08-31T02:46:17;7.55;;;2.95;;
77876;SDS011;67251;50.844;7.978;2023-08-31T02:48:43;10.52;;;3.45;;
77876;SDS011;67251;50.844;7.978;2023-08-31T02:51:09;8.60;;;3.20;;
77876;SDS011;67251;50.844;7.978;2023-08-31T02:53:34;8.63;;;3.30;;
77876;SDS011;67251;50.844;7.978;2023-08-31T02:55:59;12.32;;;4.13;;
77876;SDS011;67251;50.844;7.978;2023-08-31T03:01:31;8.27;;;3.38;;
77876;SDS011;67251;50.844;7.978;2023-08-31T03:03:56;8.18;;;3.45;;
77876;SDS011;67251;50.844;7.978;2023-08-31T03:06:21;7.63;;;3.00;;
77876;SDS011;67251;50.844;7.978;2023-08-31T03:08:47;6.93;;;2.97;;
77876;SDS011;67251;50.844;7.978;2023-08-31T03:11:12;7.63;;;3.17;;
77876;SDS011;67251;50.844;7.978;2023-08-31T03:13:39;8.07;;;3.53;;
77876;SDS011;67251;50.844;7.978;2023-08-31T03:16:05;7.72;;;2.95;;
77876;SDS011;67251;50.844;7.978;2023-08-31T03:18:30;8.20;;;3.03;;
77876;SDS011;67251;50.844;7.978;2023-08-31T03:20:55;7.30;;;3.28;;
77876;SDS011;67251;50.844;7.978;2023-08-31T03:23:21;6.25;;;2.95;;
77876;SDS011;67251;50.844;7.978;2023-08-31T03:25:46;6.88;;;2.70;;
77876;SDS011;67251;50.844;7.978;2023-08-31T03:28:12;7.85;;;2.80;;
77876;SDS011;67251;50.844;7.978;2023-08-31T03:30:37;10.55;;;2.70;;
77876;SDS011;67251;50.844;7.978;2023-08-31T03:33:03;8.23;;;2.80;;
77876;SDS011;67251;50.844;7.978;2023-08-31T03:35:28;6.55;;;2.30;;
77876;SDS011;67251;50.844;7.978;2023-08-31T03:37:54;7.65;;;2.90;;
77876;SDS011;67251;50.844;7.978;2023-08-31T03:40:20;10.30;;;2.85;;
77876;SDS011;67251;50.844;7.978;2023-08-31T03:42:46;7.28;;;2.90;;
77876;SDS011;67251;50.844;7.978;2023-08-31T03:45:11;8.13;;;3.03;;
77876;SDS011;67251;50.844;7.978;2023-08-31T03:47:37;7.65;;;3.10;;
77876;SDS011;67251;50.844;7.978;2023-08-31T03:50:03;7.88;;;2.83;;
77876;SDS011;67251;50.844;7.978;2023-08-31T03:52:29;9.57;;;3.25;;
77876;SDS011;67251;50.844;7.978;2023-08-31T03:54:54;13.13;;;3.10;;
77876;SDS011;67251;50.844;7.978;2023-08-31T03:57:20;8.77;;;2.72;;
77876;SDS011;67251;50.844;7.978;2023-08-31T03:59:45;6.93;;;3.00;;
77876;SDS011;67251;50.844;7.978;2023-08-31T04:02:11;6.82;;;2.97;;
77876;SDS011;67251;50.844;7.978;2023-08-31T04:04:36;8.75;;;3.03;;
77876;SDS011;67251;50.844;7.978;2023-08-31T04:07:01;12.80;;;3.33;;
77876;SDS011;67251;50.844;7.978;2023-08-31T04:09:27;5.80;;;2.70;;
77876;SDS011;67251;50.844;7.978;2023-08-31T04:11:52;7.18;;;2.70;;
77876;SDS011;67251;50.844;7.978;2023-08-31T04:14:17;12.63;;;2.67;;
77876;SDS011;67251;50.844;7.978;2023-08-31T04:16:43;6.93;;;3.05;;
77876;SDS011;67251;50.844;7.978;2023-08-31T04:19:09;6.72;;;2.72;;
77876;SDS011;67251;50.844;7.978;2023-08-31T04:21:35;8.07;;;3.42;;
77876;SDS011;67251;50.844;7.978;2023-08-31T04:24:01;6.65;;;2.78;;
77876;SDS011;67251;50.844;7.978;2023-08-31T04:26:26;9.10;;;3.00;;
77876;SDS011;67251;50.844;7.978;2023-08-31T04:28:52;7.68;;;2.83;;
77876;SDS011;67251;50.844;7.978;2023-08-31T04:31:18;7.78;;;2.95;;
77876;SDS011;67251;50.844;7.978;2023-08-31T04:33:43;8.00;;;2.85;;
77876;SDS011;67251;50.844;7.978;2023-08-31T04:36:10;10.85;;;3.38;;
77876;SDS011;67251;50.844;7.978;2023-08-31T04:38:35;6.35;;;2.67;;
77876;SDS011;67251;50.844;7.978;2023-08-31T04:41:03;5.63;;;2.40;;
77876;SDS011;67251;50.844;7.978;2023-08-31T04:43:28;9.45;;;2.88;;
77876;SDS011;67251;50.844;7.978;2023-08-31T04:45:54;6.68;;;2.55;;
77876;SDS011;67251;50.844;7.978;2023-08-31T04:48:20;7.97;;;2.75;;
77876;SDS011;67251;50.844;7.978;2023-08-31T04:50:46;7.38;;;2.30;;
77876;SDS011;67251;50.844;7.978;2023-08-31T04:53:12;7.80;;;2.78;;
77876;SDS011;67251;50.844;7.978;2023-08-31T04:55:38;9.55;;;2.60;;
77876;SDS011;67251;50.844;7.978;2023-08-31T04:58:03;5.22;;;2.20;;
77876;SDS011;67251;50.844;7.978;2023-08-31T05:00:29;6.70;;;2.90;;
77876;SDS011;67251;50.844;7.978;2023-08-31T05:02:55;6.45;;;2.50;;
77876;SDS011;67251;50.844;7.978;2023-08-31T05:05:20;6.93;;;2.35;;
77876;SDS011;67251;50.844;7.978;2023-08-31T05:07:46;4.97;;;2.38;;
77876;SDS011;67251;50.844;7.978;2023-08-31T05:10:11;8.80;;;2.67;;
77876;SDS011;67251;50.844;7.978;2023-08-31T05:12:37;8.50;;;3.97;;
77876;SDS011;67251;50.844;7.978;2023-08-31T05:15:03;9.05;;;3.22;;
77876;SDS011;67251;50.844;7.978;2023-08-31T05:17:28;8.07;;;3.08;;
77876;SDS011;67251;50.844;7.978;2023-08-31T05:19:55;7.38;;;2.60;;
77876;SDS011;67251;50.844;7.978;2023-08-31T05:22:20;7.07;;;3.00;;
77876;SDS011;67251;50.844;7.978;2023-08-31T05:24:45;6.55;;;3.35;;
77876;SDS011;67251;50.844;7.978;2023-08-31T05:27:11;8.48;;;2.83;;
77876;SDS011;67251;50.844;7.978;2023-08-31T05:29:36;6.10;;;2.70;;
77876;SDS011;67251;50.844;7.978;2023-08-31T05:32:01;6.50;;;2.70;;
77876;SDS011;67251;50.844;7.978;2023-08-31T05:34:27;8.65;;;3.05;;
77876;SDS011;67251;50.844;7.978;2023-08-31T05:36:53;7.75;;;2.60;;
77876;SDS011;67251;50.844;7.978;2023-08-31T05:39:18;7.45;;;2.88;;
77876;SDS011;67251;50.844;7.978;2023-08-31T05:41:44;8.30;;;2.83;;
77876;SDS011;67251;50.844;7.978;2023-08-31T05:44:09;6.38;;;3.13;;
77876;SDS011;67251;50.844;7.978;2023-08-31T05:46:35;7.22;;;2.75;;
77876;SDS011;67251;50.844;7.978;2023-08-31T05:49:00;7.07;;;2.67;;
77876;SDS011;67251;50.844;7.978;2023-08-31T05:51:26;8.98;;;2.80;;
77876;SDS011;67251;50.844;7.978;2023-08-31T05:53:51;7.78;;;3.10;;
77876;SDS011;67251;50.844;7.978;2023-08-31T05:56:18;9.45;;;2.85;;
77876;SDS011;67251;50.844;7.978;2023-08-31T05:58:44;6.15;;;3.03;;
77876;SDS011;67251;50.844;7.978;2023-08-31T06:01:09;6.55;;;3.13;;
77876;SDS011;67251;50.844;7.978;2023-08-31T06:03:35;8.02;;;2.92;;
77876;SDS011;67251;50.844;7.978;2023-08-31T06:06:01;10.02;;;2.85;;
77876;SDS011;67251;50.844;7.978;2023-08-31T06:08:27;8.13;;;3.45;;
77876;SDS011;67251;50.844;7.978;2023-08-31T06:10:52;5.80;;;2.72;;
77876;SDS011;67251;50.844;7.978;2023-08-31T06:13:18;8.80;;;3.10;;
77876;SDS011;67251;50.844;7.978;2023-08-31T06:18:24;7.45;;;3.10;;
77876;SDS011;67251;50.844;7.978;2023-08-31T06:20:50;6.40;;;2.83;;
77876;SDS011;67251;50.844;7.978;2023-08-31T06:23:15;8.18;;;2.97;;
77876;SDS011;67251;50.844;7.978;2023-08-31T06:25:41;7.18;;;3.15;;
77876;SDS011;67251;50.844;7.978;2023-08-31T06:28:06;6.82;;;2.85;;
77876;SDS011;67251;50.844;7.978;2023-08-31T06:30:34;7.47;;;3.38;;
77876;SDS011;67251;50.844;7.978;2023-08-31T06:32:59;7.25;;;3.25;;
77876;SDS011;67251;50.844;7.978;2023-08-31T06:35:25;5.95;;;3.15;;
77876;SDS011;67251;50.844;7.978;2023-08-31T06:37:51;7.82;;;3.33;;
77876;SDS011;67251;50.844;7.978;2023-08-31T06:40:16;5.50;;;2.47;;
77876;SDS011;67251;50.844;7.978;2023-08-31T06:42:42;6.45;;;2.63;;
77876;SDS011;67251;50.844;7.978;2023-08-31T06:45:07;6.75;;;2.88;;
77876;SDS011;67251;50.844;7.978;2023-08-31T06:47:33;6.80;;;2.63;;
77876;SDS011;67251;50.844;7.978;2023-08-31T06:49:59;6.43;;;2.90;;
77876;SDS011;67251;50.844;7.978;2023-08-31T06:52:25;7.25;;;2.80;;
77876;SDS011;67251;50.844;7.978;2023-08-31T06:54:51;9.27;;;2.67;;
77876;SDS011;67251;50.844;7.978;2023-08-31T06:57:20;5.65;;;2.60;;
77876;SDS011;67251;50.844;7.978;2023-08-31T06:59:47;5.65;;;2.63;;
77876;SDS011;67251;50.844;7.978;2023-08-31T07:02:12;6.93;;;3.00;;
77876;SDS011;67251;50.844;7.978;2023-08-31T07:04:38;5.50;;;2.22;;
77876;SDS011;67251;50.844;7.978;2023-08-31T07:07:03;6.55;;;2.50;;
77876;SDS011;67251;50.844;7.978;2023-08-31T07:09:30;5.22;;;2.10;;
77876;SDS011;67251;50.844;7.978;2023-08-31T07:11:55;5.18;;;2.30;;
77876;SDS011;67251;50.844;7.978;2023-08-31T07:14:20;5.55;;;2.63;;
77876;SDS011;67251;50.844;7.978;2023-08-31T07:16:46;4.70;;;2.00;;
77876;SDS011;67251;50.844;7.978;2023-08-31T07:19:11;5.90;;;2.38;;
77876;SDS011;67251;50.844;7.978;2023-08-31T07:21:36;6.32;;;2.10;;
77876;SDS011;67251;50.844;7.978;2023-08-31T07:24:02;6.40;;;2.10;;
77876;SDS011;67251;50.844;7.978;2023-08-31T07:26:27;6.70;;;2.00;;
77876;SDS011;67251;50.844;7.978;2023-08-31T07:28:53;12.10;;;2.53;;
77876;SDS011;67251;50.844;7.978;2023-08-31T07:31:19;4.88;;;1.80;;
77876;SDS011;67251;50.844;7.978;2023-08-31T07:33:45;5.15;;;1.92;;
77876;SDS011;67251;50.844;7.978;2023-08-31T07:36:10;6.25;;;2.00;;
77876;SDS011;67251;50.844;7.978;2023-08-31T07:38:35;7.10;;;2.08;;
77876;SDS011;67251;50.844;7.978;2023-08-31T07:41:01;6.35;;;2.13;;
77876;SDS011;67251;50.844;7.978;2023-08-31T07:43:26;4.78;;;2.20;;
77876;SDS011;67251;50.844;7.978;2023-08-31T07:45:52;4.25;;;1.80;;
77876;SDS011;67251;50.844;7.978;2023-08-31T07:48:18;7.13;;;2.22;;
77876;SDS011;67251;50.844;7.978;2023-08-31T07:50:44;6.28;;;2.35;;
77876;SDS011;67251;50.844;7.978;2023-08-31T07:53:09;5.82;;;2.08;;
77876;SDS011;67251;50.844;7.978;2023-08-31T07:55:35;5.18;;;2.05;;
77876;SDS011;67251;50.844;7.978;2023-08-31T07:58:01;5.40;;;1.92;;
77876;SDS011;67251;50.844;7.978;2023-08-31T08:00:26;5.28;;;1.98;;
77876;SDS011;67251;50.844;7.978;2023-08-31T08:02:52;5.45;;;2.00;;
77876;SDS011;67251;50.844;7.978;2023-08-31T08:05:17;5.57;;;2.00;;
77876;SDS011;67251;50.844;7.978;2023-08-31T08:07:43;5.85;;;2.10;;
77876;SDS011;67251;50.844;7.978;2023-08-31T08:10:09;5.75;;;2.13;;
77876;SDS011;67251;50.844;7.978;2023-08-31T08:12:38;5.25;;;1.92;;
77876;SDS011;67251;50.844;7.978;2023-08-31T08:15:05;5.78;;;1.90;;
77876;SDS011;67251;50.844;7.978;2023-08-31T08:17:34;4.45;;;1.80;;
77876;SDS011;67251;50.844;7.978;2023-08-31T08:20:00;6.15;;;2.22;;
77876;SDS011;67251;50.844;7.978;2023-08-31T08:22:26;4.40;;;2.00;;
77876;SDS011;67251;50.844;7.978;2023-08-31T08:24:51;6.00;;;2.33;;
77876;SDS011;67251;50.844;7.978;2023-08-31T08:27:16;6.20;;;2.20;;
77876;SDS011;67251;50.844;7.978;2023-08-31T08:29:45;7.00;;;2.13;;
77876;SDS011;67251;50.844;7.978;2023-08-31T08:32:11;5.53;;;2.03;;
77876;SDS011;67251;50.844;7.978;2023-08-31T08:34:37;6.25;;;2.95;;
77876;SDS011;67251;50.844;7.978;2023-08-31T08:37:02;6.43;;;2.80;;
77876;SDS011;67251;50.844;7.978;2023-08-31T08:39:30;5.57;;;3.03;;
77876;SDS011;67251;50.844;7.978;2023-08-31T08:41:57;7.50;;;2.80;;
77876;SDS011;67251;50.844;7.978;2023-08-31T08:44:24;5.03;;;2.60;;
77876;SDS011;67251;50.844;7.978;2023-08-31T08:46:53;6.60;;;2.95;;
77876;SDS011;67251;50.844;7.978;2023-08-31T08:49:18;5.82;;;2.72;;
77876;SDS011;67251;50.844;7.978;2023-08-31T08:51:45;4.85;;;2.45;;
77876;SDS011;67251;50.844;7.978;2023-08-31T08:54:12;6.45;;;2.53;;
77876;SDS011;67251;50.844;7.978;2023-08-31T08:56:38;6.05;;;2.03;;
77876;SDS011;67251;50.844;7.978;2023-08-31T08:59:03;6.88;;;2.17;;
77876;SDS011;67251;50.844;7.978;2023-08-31T09:01:30;4.93;;;1.88;;
77876;SDS011;67251;50.844;7.978;2023-08-31T09:03:57;4.88;;;1.63;;
77876;SDS011;67251;50.844;7.978;2023-08-31T09:06:22;3.53;;;1.55;;
77876;SDS011;67251;50.844;7.978;2023-08-31T09:08:54;4.80;;;1.70;;
77876;SDS011;67251;50.844;7.978;2023-08-31T09:11:22;3.50;;;1.25;;
77876;SDS011;67251;50.844;7.978;2023-08-31T09:13:49;3.83;;;1.20;;
77876;SDS011;67251;50.844;7.978;2023-08-31T09:16:25;3.70;;;1.73;;
77876;SDS011;67251;50.844;7.978;2023-08-31T09:18:51;3.58;;;1.40;;
77876;SDS011;67251;50.844;7.978;2023-08-31T09:21:17;4.97;;;1.40;;
77876;SDS011;67251;50.844;7.978;2023-08-31T09:23:45;4.88;;;1.30;;
77876;SDS011;67251;50.844;7.978;2023-08-31T09:26:12;4.72;;;1.60;;
77876;SDS011;67251;50.844;7.978;2023-08-31T09:28:40;5.70;;;1.60;;
77876;SDS011;67251;50.844;7.978;2023-08-31T09:31:06;4.15;;;1.30;;
77876;SDS011;67251;50.844;7.978;2023-08-31T09:33:33;5.30;;;1.48;;
77876;SDS011;67251;50.844;7.978;2023-08-31T09:35:59;4.32;;;1.40;;
77876;SDS011;67251;50.844;7.978;2023-08-31T09:38:26;3.55;;;1.25;;
77876;SDS011;67251;50.844;7.978;2023-08-31T09:40:52;4.43;;;1.30;;
77876;SDS011;67251;50.844;7.978;2023-08-31T09:43:28;3.42;;;1.08;;
77876;SDS011;67251;50.844;7.978;2023-08-31T09:45:53;5.93;;;1.25;;
77876;SDS011;67251;50.844;7.978;2023-08-31T09:48:19;3.72;;;1.48;;
77876;SDS011;67251;50.844;7.978;2023-08-31T09:50:45;4.10;;;1.40;;
77876;SDS011;67251;50.844;7.978;2023-08-31T09:53:11;4.10;;;1.20;;
77876;SDS011;67251;50.844;7.978;2023-08-31T09:55:38;4.22;;;1.17;;
77876;SDS011;67251;50.844;7.978;2023-08-31T09:58:05;3.40;;;1.40;;
77876;SDS011;67251;50.844;7.978;2023-08-31T10:00:33;4.55;;;1.33;;
77876;SDS011;67251;50.844;7.978;2023-08-31T10:03:02;3.88;;;1.17;;
77876;SDS011;67251;50.844;7.978;2023-08-31T10:05:29;3.53;;;1.00;;
77876;SDS011;67251;50.844;7.978;2023-08-31T10:07:56;3.15;;;1.25;;
77876;SDS011;67251;50.844;7.978;2023-08-31T10:10:22;5.45;;;1.38;;
77876;SDS011;67251;50.844;7.978;2023-08-31T10:12:48;6.18;;;1.45;;
77876;SDS011;67251;50.844;7.978;2023-08-31T10:15:18;3.80;;;1.30;;
77876;SDS011;67251;50.844;7.978;2023-08-31T10:17:44;4.75;;;1.30;;
77876;SDS011;67251;50.844;7.978;2023-08-31T10:20:11;4.15;;;1.20;;
77876;SDS011;67251;50.844;7.978;2023-08-31T10:22:39;3.17;;;1.00;;
77876;SDS011;67251;50.844;7.978;2023-08-31T10:25:05;3.50;;;1.10;;
77876;SDS011;67251;50.844;7.978;2023-08-31T10:27:49;4.95;;;1.33;;
77876;SDS011;67251;50.844;7.978;2023-08-31T10:32:46;3.20;;;1.00;;
77876;SDS011;67251;50.844;7.978;2023-08-31T10:35:12;2.88;;;1.00;;
77876;SDS011;67251;50.844;7.978;2023-08-31T10:37:39;3.85;;;1.10;;
77876;SDS011;67251;50.844;7.978;2023-08-31T10:40:06;3.20;;;0.98;;
77876;SDS011;67251;50.844;7.978;2023-08-31T10:42:46;4.93;;;1.30;;
77876;SDS011;67251;50.844;7.978;2023-08-31T10:45:19;3.33;;;1.30;;
77876;SDS011;67251;50.844;7.978;2023-08-31T10:47:46;4.45;;;1.30;;
77876;SDS011;67251;50.844;7.978;2023-08-31T10:50:15;4.10;;;1.13;;
77876;SDS011;67251;50.844;7.978;2023-08-31T10:52:45;4.25;;;1.30;;
77876;SDS011;67251;50.844;7.978;2023-08-31T10:55:11;3.38;;;1.10;;
77876;SDS011;67251;50.844;7.978;2023-08-31T10:57:37;3.67;;;1.10;;
77876;SDS011;67251;50.844;7.978;2023-08-31T11:00:05;4.20;;;1.23;;
77876;SDS011;67251;50.844;7.978;2023-08-31T11:05:07;3.45;;;1.05;;
77876;SDS011;67251;50.844;7.978;2023-08-31T11:07:38;3.38;;;1.08;;
77876;SDS011;67251;50.844;7.978;2023-08-31T11:10:21;3.70;;;1.10;;
77876;SDS011;67251;50.844;7.978;2023-08-31T11:12:49;4.70;;;1.10;;
77876;SDS011;67251;50.844;7.978;2023-08-31T11:15:18;2.60;;;0.70;;
77876;SDS011;67251;50.844;7.978;2023-08-31T11:17:45;3.92;;;0.95;;
77876;SDS011;67251;50.844;7.978;2023-08-31T11:20:15;2.70;;;0.90;;
77876;SDS011;67251;50.844;7.978;2023-08-31T11:22:42;4.95;;;1.10;;
77876;SDS011;67251;50.844;7.978;2023-08-31T11:25:09;4.55;;;1.15;;
77876;SDS011;67251;50.844;7.978;2023-08-31T11:27:37;3.25;;;1.00;;
77876;SDS011;67251;50.844;7.978;2023-08-31T11:30:04;4.00;;;1.42;;
77876;SDS011;67251;50.844;7.978;2023-08-31T11:32:36;4.07;;;0.95;;
77876;SDS011;67251;50.844;7.978;2023-08-31T11:35:02;3.67;;;1.10;;
77876;SDS011;67251;50.844;7.978;2023-08-31T11:37:28;4.05;;;0.98;;
77876;SDS011;67251;50.844;7.978;2023-08-31T11:39:54;5.45;;;1.10;;
77876;SDS011;67251;50.844;7.978;2023-08-31T11:42:20;3.95;;;1.17;;
77876;SDS011;67251;50.844;7.978;2023-08-31T11:44:47;2.95;;;0.90;;
77876;SDS011;67251;50.844;7.978;2023-08-31T11:47:13;4.25;;;1.00;;
77876;SDS011;67251;50.844;7.978;2023-08-31T11:49:40;2.60;;;0.90;;
77876;SDS011;67251;50.844;7.978;2023-08-31T11:52:09;3.05;;;1.45;;
77876;SDS011;67251;50.844;7.978;2023-08-31T11:54:39;4.20;;;1.17;;
77876;SDS011;67251;50.844;7.978;2023-08-31T11:57:08;4.38;;;1.05;;
77876;SDS011;67251;50.844;7.978;2023-08-31T11:59:35;5.03;;;1.40;;
77876;SDS011;67251;50.844;7.978;2023-08-31T12:02:02;2.90;;;1.05;;
77876;SDS011;67251;50.844;7.978;2023-08-31T12:04:32;5.07;;;1.30;;
77876;SDS011;67251;50.844;7.978;2023-08-31T12:07:01;6.05;;;1.65;;
77876;SDS011;67251;50.844;7.978;2023-08-31T12:09:29;4.55;;;1.40;;
77876;SDS011;67251;50.844;7.978;2023-08-31T12:11:55;5.53;;;1.10;;
77876;SDS011;67251;50.844;7.978;2023-08-31T12:14:24;3.55;;;1.00;;
77876;SDS011;67251;50.844;7.978;2023-08-31T12:16:51;3.50;;;1.00;;
77876;SDS011;67251;50.844;7.978;2023-08-31T12:19:17;4.40;;;1.17;;
77876;SDS011;67251;50.844;7.978;2023-08-31T12:21:44;4.95;;;1.23;;
77876;SDS011;67251;50.844;7.978;2023-08-31T12:24:11;3.17;;;1.02;;
77876;SDS011;67251;50.844;7.978;2023-08-31T12:26:37;3.65;;;1.00;;
77876;SDS011;67251;50.844;7.978;2023-08-31T12:29:02;3.53;;;1.20;;
77876;SDS011;67251;50.844;7.978;2023-08-31T12:31:29;4.35;;;1.08;;
77876;SDS011;67251;50.844;7.978;2023-08-31T12:33:55;3.22;;;1.00;;
77876;SDS011;67251;50.844;7.978;2023-08-31T12:36:20;2.85;;;0.90;;
77876;SDS011;67251;50.844;7.978;2023-08-31T12:38:46;3.80;;;0.90;;
77876;SDS011;67251;50.844;7.978;2023-08-31T12:41:11;3.60;;;0.88;;
77876;SDS011;67251;50.844;7.978;2023-08-31T12:43:37;4.25;;;1.00;;
77876;SDS011;67251;50.844;7.978;2023-08-31T12:46:02;3.40;;;1.08;;
77876;SDS011;67251;50.844;7.978;2023-08-31T12:48:30;2.92;;;1.10;;
77876;SDS011;67251;50.844;7.978;2023-08-31T12:50:56;4.53;;;1.20;;
77876;SDS011;67251;50.844;7.978;2023-08-31T12:53:22;4.20;;;1.05;;
77876;SDS011;67251;50.844;7.978;2023-08-31T12:55:48;4.40;;;0.95;;
77876;SDS011;67251;50.844;7.978;2023-08-31T12:58:14;2.80;;;0.80;;
77876;SDS011;67251;50.844;7.978;2023-08-31T13:00:40;5.03;;;1.13;;
77876;SDS011;67251;50.844;7.978;2023-08-31T13:03:05;3.80;;;1.17;;
77876;SDS011;67251;50.844;7.978;2023-08-31T13:05:32;2.97;;;0.77;;
77876;SDS011;67251;50.844;7.978;2023-08-31T13:07:57;6.07;;;1.42;;
77876;SDS011;67251;50.844;7.978;2023-08-31T13:10:23;3.78;;;1.00;;
77876;SDS011;67251;50.844;7.978;2023-08-31T13:12:48;3.03;;;1.00;;
77876;SDS011;67251;50.844;7.978;2023-08-31T13:15:14;3.42;;;1.23;;
77876;SDS011;67251;50.844;7.978;2023-08-31T16:29:46;3.80;;;1.60;;
77876;SDS011;67251;50.844;7.978;2023-08-31T16:32:13;3.33;;;1.20;;
77876;SDS011;67251;50.844;7.978;2023-08-31T16:34:38;5.18;;;1.50;;
77876;SDS011;67251;50.844;7.978;2023-08-31T16:37:04;4.35;;;1.60;;
77876;SDS011;67251;50.844;7.978;2023-08-31T16:39:29;7.07;;;1.48;;
77876;SDS011;67251;50.844;7.978;2023-08-31T16:41:56;4.57;;;1.67;;
77876;SDS011;67251;50.844;7.978;2023-08-31T16:44:21;4.07;;;1.48;;
77876;SDS011;67251;50.844;7.978;2023-08-31T16:46:47;4.00;;;1.20;;
77876;SDS011;67251;50.844;7.978;2023-08-31T16:49:12;4.18;;;1.65;;
77876;SDS011;67251;50.844;7.978;2023-08-31T16:51:37;4.45;;;1.40;;
77876;SDS011;67251;50.844;7.978;2023-08-31T16:54:04;3.08;;;1.25;;
77876;SDS011;67251;50.844;7.978;2023-08-31T16:56:30;4.85;;;1.42;;
77876;SDS011;67251;50.844;7.978;2023-08-31T16:58:55;4.00;;;1.50;;
77876;SDS011;67251;50.844;7.978;2023-08-31T17:01:23;3.17;;;1.30;;
77876;SDS011;67251;50.844;7.978;2023-08-31T17:03:49;4.75;;;1.90;;
77876;SDS011;67251;50.844;7.978;2023-08-31T17:06:14;5.88;;;1.70;;
77876;SDS011;67251;50.844;7.978;2023-08-31T17:08:39;4.30;;;1.42;;
77876;SDS011;67251;50.844;7.978;2023-08-31T17:11:05;4.50;;;1.45;;
77876;SDS011;67251;50.844;7.978;2023-08-31T17:13:31;3.55;;;1.50;;
77876;SDS011;67251;50.844;7.978;2023-08-31T17:15:57;4.45;;;1.55;;
77876;SDS011;67251;50.844;7.978;2023-08-31T17:18:23;3.70;;;1.33;;
77876;SDS011;67251;50.844;7.978;2023-08-31T17:20:48;5.05;;;1.30;;
77876;SDS011;67251;50.844;7.978;2023-08-31T17:23:13;3.70;;;1.40;;
77876;SDS011;67251;50.844;7.978;2023-08-31T17:25:39;7.38;;;1.60;;
77876;SDS011;67251;50.844;7.978;2023-08-31T17:28:04;5.00;;;1.50;;
77876;SDS011;67251;50.844;7.978;2023-08-31T17:30:31;3.70;;;1.50;;
77876;SDS011;67251;50.844;7.978;2023-08-31T17:32:56;4.75;;;1.63;;
77876;SDS011;67251;50.844;7.978;2023-08-31T17:35:22;3.80;;;1.40;;
77876;SDS011;67251;50.844;7.978;2023-08-31T17:37:47;6.10;;;1.60;;
77876;SDS011;67251;50.844;7.978;2023-08-31T17:40:12;5.18;;;1.67;;
77876;SDS011;67251;50.844;7.978;2023-08-31T17:42:38;3.95;;;1.45;;
77876;SDS011;67251;50.844;7.978;2023-08-31T17:45:06;4.50;;;1.65;;
77876;SDS011;67251;50.844;7.978;2023-08-31T17:47:32;4.70;;;1.60;;
77876;SDS011;67251;50.844;7.978;2023-08-31T17:49:57;4.47;;;1.45;;
77876;SDS011;67251;50.844;7.978;2023-08-31T17:52:23;4.10;;;1.40;;
77876;SDS011;67251;50.844;7.978;2023-08-31T17:54:48;5.32;;;2.08;;
77876;SDS011;67251;50.844;7.978;2023-08-31T17:57:14;3.70;;;1.65;;
77876;SDS011;67251;50.844;7.978;2023-08-31T17:59:39;4.35;;;1.50;;
77876;SDS011;67251;50.844;7.978;2023-08-31T18:02:06;6.00;;;1.80;;
77876;SDS011;67251;50.844;7.978;2023-08-31T18:04:31;3.75;;;1.40;;
77876;SDS011;67251;50.844;7.978;2023-08-31T18:06:56;4.38;;;1.50;;
77876;SDS011;67251;50.844;7.978;2023-08-31T18:09:22;6.15;;;1.88;;
77876;SDS011;67251;50.844;7.978;2023-08-31T18:11:51;6.00;;;1.75;;
77876;SDS011;67251;50.844;7.978;2023-08-31T18:14:17;6.30;;;1.52;;
77876;SDS011;67251;50.844;7.978;2023-08-31T18:16:42;4.60;;;1.73;;
77876;SDS011;67251;50.844;7.978;2023-08-31T18:19:08;4.13;;;1.60;;
77876;SDS011;67251;50.844;7.978;2023-08-31T18:21:33;4.07;;;1.80;;